Time;durP1;ratioP1;P1;durP2;ratioP2;P2;SDS_P1;SDS_P2;PMS_P1;PMS_P2;Temp;Humidity;BMP_temperature;BMP_pressure;BME280_temperature;BME280_humidity;BME280_pressure;Samples;Min_cycle;Max_cycle;Signal;HPM_P1;HPM_P2
2022/07/17 00:01:21;;;;;;;;;;;;;;;18.36;43.58;101607.34;4958700;28;8395;-82
2022/07/17 00:03:46;;;;;;;;;;;;;;;18.30;43.55;101606.31;4927353;28;8386;-82
2022/07/17 00:06:14;;;;;;;;;;;;;;;18.25;43.64;101601.75;4928668;28;7034;-82
2022/07/17 00:08:40;;;;;;;;;;;;;;;18.19;43.82;101607.59;4941819;28;7158;-82
2022/07/17 00:11:05;;;;;;;;;;;;;;;18.13;44.02;101600.50;4916774;28;7278;-82
2022/07/17 00:13:31;;;;;;;;;;;;;;;18.09;44.03;101611.59;4949395;28;7272;-82
2022/07/17 00:15:57;;;;;;;;;;;;;;;18.02;44.04;101610.47;4938610;28;7094;-82
2022/07/17 00:18:23;;;;;;;;;;;;;;;17.98;44.46;101602.50;4953627;28;8749;-82
2022/07/17 00:20:48;;;;;;;;;;;;;;;17.96;44.50;101598.97;4911805;28;6939;-82
2022/07/17 00:23:14;;;;;;;;;;;;;;;17.91;44.07;101604.88;4956105;28;6940;-82
2022/07/17 00:25:40;;;;;;;;;;;;;;;17.87;44.84;101599.50;4912830;28;6945;-82
2022/07/17 00:28:05;;;;;;;;;;;;;;;17.80;44.47;101601.00;4955558;28;7107;-82
2022/07/17 00:30:31;;;;;;;;;;;;;;;17.76;44.43;101596.50;4942300;28;8387;-82
2022/07/17 00:32:57;;;;;;;;;;;;;;;17.71;44.52;101593.75;4955873;28;6922;-82
2022/07/17 00:35:24;;;;;;;;;;;;;;;17.69;45.02;101597.13;4925814;28;6794;-82
2022/07/17 00:37:50;;;;;;;;;;;;;;;17.65;44.94;101595.22;4941741;28;7316;-82
2022/07/17 00:40:23;;;;;;;;;;;;;;;17.60;45.40;101595.06;4926374;28;6983;-82
2022/07/17 00:42:50;;;;;;;;;;;;;;;17.56;45.00;101593.19;4914984;28;7247;-82
2022/07/17 00:45:16;;;;;;;;;;;;;;;17.53;45.37;101598.22;4925282;28;8286;-82
2022/07/17 00:47:58;;;;;;;;;;;;;;;17.46;45.40;101599.69;4925460;28;8534;-82
2022/07/17 00:50:35;;;;;;;;;;;;;;;17.39;46.02;101595.13;4943588;28;6995;-82
2022/07/17 00:53:02;;;;;;;;;;;;;;;17.35;45.88;101594.13;4939205;28;7005;-82
2022/07/17 00:55:29;;;;;;;;;;;;;;;17.29;46.38;101589.59;4941690;28;6983;-82
2022/07/17 00:57:57;;;;;;;;;;;;;;;17.28;46.24;101592.09;4942811;28;7182;-82
2022/07/17 01:00:23;;;;;;;;;;;;;;;17.26;46.08;101596.34;4907576;28;6990;-82
2022/07/17 01:02:53;;;;;;;;;;;;;;;17.22;46.10;101592.75;4927788;28;7188;-82
2022/07/17 01:05:21;;;;;;;;;;;;;;;17.19;46.49;101593.50;4941418;28;6999;-82
2022/07/17 01:07:47;;;;;;;;;;;;;;;17.16;46.32;101589.91;4928424;28;6991;-82
2022/07/17 01:10:18;;;;;;;;;;;;;;;17.08;46.45;101590.47;4914884;29;6949;-82
2022/07/17 01:12:48;;;;;;;;;;;;;;;17.04;47.11;101582.53;4907919;29;7029;-82
2022/07/17 01:15:15;;;;;;;;;;;;;;;17.00;47.69;101578.94;4925093;28;6970;-82
2022/07/17 01:17:41;;;;;;;;;;;;;;;16.95;47.50;101567.47;4955613;28;7226;-82
2022/07/17 01:20:09;;;;;;;;;;;;;;;16.93;48.11;101576.88;4915195;29;8478;-82
2022/07/17 01:22:47;;;;;;;;;;;;;;;16.89;47.71;101573.28;4954277;28;6976;-82
2022/07/17 01:25:14;;;;;;;;;;;;;;;16.87;48.70;101574.03;4921552;29;7192;-82
2022/07/17 01:27:41;;;;;;;;;;;;;;;16.86;48.09;101574.88;4941930;28;7003;-82
2022/07/17 01:30:09;;;;;;;;;;;;;;;16.85;47.74;101575.69;4924327;28;6987;-82
2022/07/17 01:32:38;;;;;;;;;;;;;;;16.83;47.96;101574.75;4950071;28;7044;-82
2022/07/17 01:35:06;;;;;;;;;;;;;;;16.79;47.73;101579.78;4953995;28;8640;-82
2022/07/17 01:37:32;;;;;;;;;;;;;;;16.76;48.27;101582.25;4953820;28;7238;-82
2022/07/17 01:39:57;;;;;;;;;;;;;;;16.72;47.56;101582.97;4937568;28;7522;-82
2022/07/17 01:42:26;;;;;;;;;;;;;;;16.69;47.63;101580.22;4928141;29;7182;-82
2022/07/17 01:44:54;;;;;;;;;;;;;;;16.66;47.76;101574.94;4952607;28;8059;-82
2022/07/17 01:47:21;;;;;;;;;;;;;;;16.58;47.93;101574.63;4932629;28;7271;-82
2022/07/17 01:49:53;;;;;;;;;;;;;;;16.58;47.81;101578.91;4929494;29;6981;-82
2022/07/17 01:52:21;;;;;;;;;;;;;;;16.51;48.37;101581.25;4915969;28;7051;-82
2022/07/17 01:54:48;;;;;;;;;;;;;;;16.47;48.53;101576.75;4939305;28;7242;-82
2022/07/17 01:57:14;;;;;;;;;;;;;;;16.45;48.70;101572.31;4926414;28;6997;-82
2022/07/17 01:59:40;;;;;;;;;;;;;;;16.43;49.23;101572.25;4920019;29;8376;-82
2022/07/17 02:02:08;;;;;;;;;;;;;;;16.38;48.93;101572.06;4922863;28;7070;-82
2022/07/17 02:04:41;;;;;;;;;;;;;;;16.35;48.82;101573.63;4942789;28;7189;-82
2022/07/17 02:07:08;;;;;;;;;;;;;;;16.31;49.28;101572.63;4899635;28;1110972;-82
2022/07/17 02:09:34;;;;;;;;;;;;;;;16.27;49.49;101570.69;4925557;28;8447;-82
2022/07/17 02:12:00;;;;;;;;;;;;;;;16.21;49.31;101568.72;4928019;29;6984;-82
2022/07/17 02:14:27;;;;;;;;;;;;;;;16.19;49.46;101570.38;4941815;28;7147;-82
2022/07/17 02:16:53;;;;;;;;;;;;;;;16.17;49.12;101564.25;4941720;28;8718;-82
2022/07/17 02:19:19;;;;;;;;;;;;;;;16.15;49.11;101562.41;4957179;28;6799;-81
2022/07/17 02:21:45;;;;;;;;;;;;;;;16.13;49.69;101557.19;4936585;28;6971;-82
2022/07/17 02:24:11;;;;;;;;;;;;;;;16.13;49.32;101559.78;4926267;28;8596;-82
2022/07/17 02:26:37;;;;;;;;;;;;;;;16.10;49.42;101562.22;4912600;28;7145;-82
2022/07/17 02:29:02;;;;;;;;;;;;;;;16.10;49.56;101562.22;4928128;29;7200;-82
2022/07/17 02:31:28;;;;;;;;;;;;;;;16.08;49.65;101558.69;4954165;28;7047;-82
2022/07/17 02:33:54;;;;;;;;;;;;;;;16.07;49.02;101562.09;4913314;29;7215;-82
2022/07/17 02:36:19;;;;;;;;;;;;;;;16.05;48.86;101566.31;4931010;28;8388;-82
2022/07/17 02:38:45;;;;;;;;;;;;;;;16.01;48.92;101567.88;4915051;29;6990;-82
2022/07/17 02:41:11;;;;;;;;;;;;;;;15.98;49.49;101574.59;4916641;29;6959;-82
2022/07/17 02:43:40;;;;;;;;;;;;;;;15.94;49.12;101579.66;4950425;28;6760;-81
2022/07/17 02:46:06;;;;;;;;;;;;;;;15.92;49.44;101578.66;4954853;28;7190;-82
2022/07/17 02:48:31;;;;;;;;;;;;;;;15.90;49.30;101584.59;4940269;28;8715;-82
2022/07/17 02:50:57;;;;;;;;;;;;;;;15.89;49.51;101582.81;4955673;28;7014;-82
2022/07/17 02:53:23;;;;;;;;;;;;;;;15.85;49.88;101581.78;4943163;28;7217;-82
2022/07/17 02:55:48;;;;;;;;;;;;;;;15.85;49.30;101580.88;4923466;29;6946;-82
2022/07/17 02:58:14;;;;;;;;;;;;;;;15.79;49.79;101574.66;4951540;28;7030;-82
2022/07/17 03:00:40;;;;;;;;;;;;;;;15.77;50.12;101576.25;4937532;28;7409;-82
2022/07/17 03:03:06;;;;;;;;;;;;;;;15.74;49.98;101590.72;4928224;28;7246;-82
2022/07/17 03:05:31;;;;;;;;;;;;;;;15.72;50.66;101582.03;4952557;28;8696;-82
2022/07/17 03:07:57;;;;;;;;;;;;;;;15.69;50.61;101586.25;4957320;28;6986;-82
2022/07/17 03:10:23;;;;;;;;;;;;;;;15.68;50.81;101588.75;4940612;28;7325;-82
2022/07/17 03:12:49;;;;;;;;;;;;;;;15.67;50.30;101590.47;4917110;28;7186;-82
2022/07/17 03:15:15;;;;;;;;;;;;;;;15.67;50.32;101593.06;4948420;28;7193;-82
2022/07/17 03:17:42;;;;;;;;;;;;;;;15.65;50.24;101592.09;4933466;28;6946;-82
2022/07/17 03:20:09;;;;;;;;;;;;;;;15.64;50.94;101592.88;4934900;28;7216;-82
2022/07/17 03:22:35;;;;;;;;;;;;;;;15.61;50.88;101582.41;4947398;28;7145;-82
2022/07/17 03:25:01;;;;;;;;;;;;;;;15.60;50.69;101588.41;4928404;28;6976;-82
2022/07/17 03:27:26;;;;;;;;;;;;;;;15.59;50.99;101584.06;4915491;28;6984;-82
2022/07/17 03:29:53;;;;;;;;;;;;;;;15.59;50.56;101593.50;4946150;28;6982;-82
2022/07/17 03:32:20;;;;;;;;;;;;;;;15.56;50.71;101596.84;4937704;28;6964;-82
2022/07/17 03:34:45;;;;;;;;;;;;;;;15.54;50.60;101593.28;4934209;28;6934;-82
2022/07/17 03:37:11;;;;;;;;;;;;;;;15.54;50.95;101585.53;4957176;28;6933;-82
2022/07/17 03:39:37;;;;;;;;;;;;;;;15.49;50.48;101581.88;4947817;28;6805;-82
2022/07/17 03:42:03;;;;;;;;;;;;;;;15.48;50.63;101586.13;4942439;28;7042;-82
2022/07/17 03:44:29;;;;;;;;;;;;;;;15.47;50.71;101578.34;4914156;28;8373;-82
2022/07/17 03:46:54;;;;;;;;;;;;;;;15.44;50.89;101573.91;4950506;28;6935;-82
2022/07/17 03:49:21;;;;;;;;;;;;;;;15.43;51.00;101568.66;4911802;28;6997;-82
2022/07/17 03:51:47;;;;;;;;;;;;;;;15.43;51.60;101563.47;4944185;28;7203;-82
2022/07/17 03:54:12;;;;;;;;;;;;;;;15.44;51.14;101566.16;4911937;28;8026;-82
2022/07/17 03:56:38;;;;;;;;;;;;;;;15.44;51.37;101567.81;4929185;28;6937;-82
2022/07/17 03:59:04;;;;;;;;;;;;;;;15.45;52.10;101574.75;4957298;28;7408;-81
2022/07/17 04:01:29;;;;;;;;;;;;;;;15.47;51.37;101575.75;4957263;28;6932;-82
2022/07/17 04:03:55;;;;;;;;;;;;;;;15.50;51.15;101579.38;4931911;28;7231;-82
2022/07/17 04:06:21;;;;;;;;;;;;;;;15.51;51.49;101581.13;4928938;28;8373;-82
2022/07/17 04:08:46;;;;;;;;;;;;;;;15.53;51.62;101583.75;4928787;28;6950;-82
2022/07/17 04:11:13;;;;;;;;;;;;;;;15.54;51.65;101594.19;4952137;28;7207;-81
2022/07/17 04:13:38;;;;;;;;;;;;;;;15.58;52.18;101595.22;4947135;28;7234;-81
2022/07/17 04:16:05;;;;;;;;;;;;;;;15.60;52.53;101600.47;4956797;28;6953;-81
2022/07/17 04:18:35;;;;;;;;;;;;;;;15.64;52.50;101598.06;4931190;28;9087;-81
2022/07/17 04:21:07;;;;;;;;;;;;;;;15.66;52.41;101601.63;4929921;28;7016;-81
2022/07/17 04:23:34;;;;;;;;;;;;;;;15.71;51.86;101600.94;4912042;28;9411;-79
2022/07/17 04:26:00;;;;;;;;;;;;;;;15.78;52.65;101597.81;4955356;28;6808;-79
2022/07/17 04:28:26;;;;;;;;;;;;;;;15.86;52.18;101586.13;4923995;28;6816;-79
2022/07/17 04:30:52;;;;;;;;;;;;;;;16.00;52.42;101586.78;4943701;28;8444;-79
2022/07/17 04:33:18;;;;;;;;;;;;;;;16.19;53.11;101592.78;4943943;28;7254;-79
2022/07/17 04:35:44;;;;;;;;;;;;;;;16.43;53.45;101594.66;4913899;28;7171;-79
2022/07/17 04:38:11;;;;;;;;;;;;;;;16.78;53.71;101587.50;4960428;28;6780;-79
2022/07/17 04:40:38;;;;;;;;;;;;;;;17.17;54.00;101589.06;4958446;28;7224;-79
2022/07/17 04:43:06;;;;;;;;;;;;;;;17.60;53.57;101592.47;4939668;28;6979;-79
2022/07/17 04:45:33;;;;;;;;;;;;;;;18.06;52.78;101605.41;4930825;28;7018;-79
2022/07/17 04:47:59;;;;;;;;;;;;;;;18.47;52.46;101603.41;4924461;28;7258;-79
2022/07/17 04:50:25;;;;;;;;;;;;;;;18.83;51.56;101608.06;4954753;28;6828;-79
2022/07/17 04:52:51;;;;;;;;;;;;;;;19.13;50.56;101603.88;4945593;28;6752;-79
2022/07/17 04:55:17;;;;;;;;;;;;;;;19.40;50.30;101596.03;4933766;28;6907;-79
2022/07/17 04:57:43;;;;;;;;;;;;;;;19.70;50.31;101591.69;4928993;28;7378;-79
2022/07/17 05:00:11;;;;;;;;;;;;;;;19.99;49.72;101586.50;4925423;28;6961;-80
2022/07/17 05:02:38;;;;;;;;;;;;;;;20.33;49.37;101590.03;4925584;28;6796;-80
2022/07/17 05:05:04;;;;;;;;;;;;;;;20.65;48.18;101587.34;4953234;28;6826;-80
2022/07/17 05:07:30;;;;;;;;;;;;;;;21.02;47.87;101591.75;4927209;28;6788;-80
2022/07/17 05:09:56;;;;;;;;;;;;;;;21.35;47.33;101589.03;4921550;28;7091;-80
2022/07/17 05:12:21;;;;;;;;;;;;;;;21.71;47.05;101597.66;4907979;28;6932;-80
2022/07/17 05:14:47;;;;;;;;;;;;;;;22.06;46.23;101600.09;4942239;28;6996;-80
2022/07/17 05:17:13;;;;;;;;;;;;;;;22.39;45.56;101595.47;4924696;28;9034;-80
2022/07/17 05:19:39;;;;;;;;;;;;;;;22.70;45.44;101595.19;4954431;28;7669;-80
2022/07/17 05:22:05;;;;;;;;;;;;;;;23.03;44.79;101596.56;4926501;28;6948;-80
2022/07/17 05:24:32;;;;;;;;;;;;;;;23.37;43.61;101597.09;4943419;28;6840;-80
2022/07/17 05:26:57;;;;;;;;;;;;;;;23.70;42.71;101610.56;4943540;28;7626;-80
2022/07/17 05:29:23;;;;;;;;;;;;;;;24.02;42.51;101614.44;4910965;28;6968;-80
2022/07/17 05:31:49;;;;;;;;;;;;;;;24.31;42.81;101608.69;4922919;28;7269;-80
2022/07/17 05:34:15;;;;;;;;;;;;;;;24.61;41.93;101602.84;4942090;28;6843;-81
2022/07/17 05:36:42;;;;;;;;;;;;;;;24.89;40.96;101591.72;4952669;28;7296;-82
2022/07/17 05:39:08;;;;;;;;;;;;;;;25.15;40.00;101597.16;4919948;28;8655;-80
2022/07/17 05:41:34;;;;;;;;;;;;;;;25.38;39.59;101607.78;4953605;28;8497;-80
2022/07/17 05:44:00;;;;;;;;;;;;;;;25.59;38.85;101611.44;4925811;28;6968;-80
2022/07/17 05:46:25;;;;;;;;;;;;;;;25.71;37.44;101612.34;4939686;28;7250;-81
2022/07/17 05:48:51;;;;;;;;;;;;;;;25.78;38.02;101616.72;4938309;28;7285;-80
2022/07/17 05:51:17;;;;;;;;;;;;;;;25.88;37.38;101605.44;4912153;28;7210;-81
2022/07/17 05:53:42;;;;;;;;;;;;;;;25.96;37.26;101609.81;4955784;28;6928;-80
2022/07/17 05:56:08;;;;;;;;;;;;;;;25.92;36.22;101609.81;4927532;28;7196;-80
2022/07/17 05:58:34;;;;;;;;;;;;;;;25.67;35.43;101613.19;4956819;28;6779;-80
2022/07/17 06:00:59;;;;;;;;;;;;;;;25.24;35.37;101605.06;4938959;28;7149;-80
2022/07/17 06:03:25;;;;;;;;;;;;;;;24.78;35.74;101616.13;4941457;28;6864;-80
2022/07/17 06:05:50;;;;;;;;;;;;;;;24.29;36.12;101606.06;4939466;28;6764;-80
2022/07/17 06:08:16;;;;;;;;;;;;;;;23.90;36.49;101616.06;4932336;28;6764;-80
2022/07/17 06:10:42;;;;;;;;;;;;;;;23.53;36.66;101612.97;4945980;28;8364;-80
2022/07/17 06:13:07;;;;;;;;;;;;;;;23.22;37.25;101615.13;4951972;28;7459;-80
2022/07/17 06:15:33;;;;;;;;;;;;;;;22.95;37.41;101619.06;4933862;28;6901;-80
2022/07/17 06:18:02;;;;;;;;;;;;;;;22.74;38.35;101610.03;4954923;28;6962;-81
2022/07/17 06:20:29;;;;;;;;;;;;;;;22.56;38.73;101601.03;4935352;28;6991;-81
2022/07/17 06:22:55;;;;;;;;;;;;;;;22.41;39.06;101603.34;4939137;28;7431;-80
2022/07/17 06:25:21;;;;;;;;;;;;;;;22.28;39.24;101610.94;4950550;28;7091;-80
2022/07/17 06:27:46;;;;;;;;;;;;;;;22.21;39.64;101609.06;4954710;28;7243;-82
2022/07/17 06:30:14;;;;;;;;;;;;;;;22.15;39.80;101619.41;4955341;28;6792;-79
2022/07/17 06:32:41;;;;;;;;;;;;;;;22.09;39.82;101612.34;4949069;28;11887;-80
2022/07/17 06:35:08;;;;;;;;;;;;;;;22.08;39.98;101607.06;4925846;29;6860;-80
2022/07/17 06:37:34;;;;;;;;;;;;;;;22.07;40.44;101611.44;4926098;29;6904;-81
2022/07/17 06:40:01;;;;;;;;;;;;;;;22.06;40.39;101605.31;4926078;29;6989;-80
2022/07/17 06:42:27;;;;;;;;;;;;;;;22.09;41.03;101614.06;4924894;28;6784;-80
2022/07/17 06:44:52;;;;;;;;;;;;;;;22.11;41.33;101612.34;4910317;28;6964;-79
2022/07/17 06:47:18;;;;;;;;;;;;;;;22.16;41.01;101622.06;4926118;28;7016;-80
2022/07/17 06:49:44;;;;;;;;;;;;;;;22.17;40.96;101620.31;4944637;28;7480;-80
2022/07/17 06:52:10;;;;;;;;;;;;;;;22.22;40.98;101616.06;4940823;28;8371;-79
2022/07/17 06:54:35;;;;;;;;;;;;;;;22.25;40.62;101613.50;4927007;28;6788;-80
2022/07/17 06:57:01;;;;;;;;;;;;;;;22.29;40.77;101612.69;4936556;28;7829;-80
2022/07/17 06:59:27;;;;;;;;;;;;;;;22.36;40.33;101615.44;4929125;28;7095;-81
2022/07/17 07:01:53;;;;;;;;;;;;;;;22.41;40.69;101616.41;4950826;28;6825;-81
2022/07/17 07:04:19;;;;;;;;;;;;;;;22.46;40.38;101601.69;4923829;28;8135;-81
2022/07/17 07:06:44;;;;;;;;;;;;;;;22.56;40.63;101595.81;4941221;28;6943;-81
2022/07/17 07:09:11;;;;;;;;;;;;;;;22.73;40.59;101598.69;4915985;28;7107;-81
2022/07/17 07:11:38;;;;;;;;;;;;;;;23.06;40.61;101577.44;4943848;28;7169;-81
2022/07/17 07:14:04;;;;;;;;;;;;;;;23.51;40.07;101583.31;4939975;28;7036;-81
2022/07/17 07:16:30;;;;;;;;;;;;;;;23.97;40.08;101581.25;4929597;28;7213;-81
2022/07/17 07:18:55;;;;;;;;;;;;;;;24.51;39.97;101574.81;4952954;28;6848;-81
2022/07/17 07:21:22;;;;;;;;;;;;;;;25.08;38.95;101577.88;4929259;28;8212;-81
2022/07/17 07:23:49;;;;;;;;;;;;;;;25.64;38.83;101585.19;4953714;28;6824;-81
2022/07/17 07:26:14;;;;;;;;;;;;;;;26.19;38.28;101597.66;4938376;28;8737;-81
2022/07/17 07:28:40;;;;;;;;;;;;;;;26.64;37.32;101591.53;4945497;28;6942;-81
2022/07/17 07:31:06;;;;;;;;;;;;;;;27.01;36.07;101583.63;4953798;28;7201;-81
2022/07/17 07:33:31;;;;;;;;;;;;;;;27.38;34.92;101579.16;4956768;28;6979;-81
2022/07/17 07:35:57;;;;;;;;;;;;;;;27.72;34.39;101589.59;4966694;28;6957;-81
2022/07/17 07:38:23;;;;;;;;;;;;;;;28.05;34.02;101589.38;4931085;28;7316;-81
2022/07/17 07:40:49;;;;;;;;;;;;;;;28.31;33.02;101584.00;4945004;28;9527;-80
2022/07/17 07:43:15;;;;;;;;;;;;;;;28.58;32.90;101587.28;4956502;28;6800;-80
2022/07/17 07:45:40;;;;;;;;;;;;;;;28.86;32.45;101592.31;4950671;28;7771;-80
2022/07/17 07:48:06;;;;;;;;;;;;;;;29.13;32.31;101590.31;4925416;28;7231;-81
2022/07/17 07:50:32;;;;;;;;;;;;;;;29.32;31.53;101590.09;4928880;28;6876;-80
2022/07/17 07:52:57;;;;;;;;;;;;;;;29.50;31.85;101594.28;4954080;28;7448;-80
2022/07/17 07:55:23;;;;;;;;;;;;;;;29.66;31.26;101595.00;4927994;28;7812;-80
2022/07/17 07:58:00;;;;;;;;;;;;;;;29.74;30.17;101601.03;4945117;28;6816;-80
2022/07/17 08:00:26;;;;;;;;;;;;;;;29.76;30.37;101603.66;4914254;28;7015;-80
2022/07/17 08:02:51;;;;;;;;;;;;;;;29.73;29.76;101604.56;4922843;28;7403;-80
2022/07/17 08:05:17;;;;;;;;;;;;;;;29.62;29.74;101601.19;4939287;28;8449;-80
2022/07/17 08:07:42;;;;;;;;;;;;;;;29.45;29.41;101612.84;4955097;28;6962;-80
2022/07/17 08:10:08;;;;;;;;;;;;;;;29.39;29.73;101612.91;4962992;28;6778;-80
2022/07/17 08:12:34;;;;;;;;;;;;;;;29.42;29.73;101619.91;4961013;28;6956;-81
2022/07/17 08:14:59;;;;;;;;;;;;;;;29.38;29.09;101609.38;4947635;28;6955;-81
2022/07/17 08:17:25;;;;;;;;;;;;;;;29.50;29.36;101616.31;4955363;28;8306;-80
2022/07/17 08:19:51;;;;;;;;;;;;;;;29.63;29.07;101617.03;4945609;28;8452;-81
2022/07/17 08:22:16;;;;;;;;;;;;;;;29.76;29.27;101615.13;4930120;28;6970;-80
2022/07/17 08:24:42;;;;;;;;;;;;;;;29.83;28.82;101618.53;4941834;28;6784;-80
2022/07/17 08:27:07;;;;;;;;;;;;;;;29.82;28.29;101632.66;4947838;28;7134;-80
2022/07/17 08:29:33;;;;;;;;;;;;;;;29.85;28.10;101639.66;4910210;28;8171;-80
2022/07/17 08:31:59;;;;;;;;;;;;;;;29.92;28.05;101633.38;4952344;28;7905;-80
2022/07/17 08:34:24;;;;;;;;;;;;;;;30.12;26.97;101642.84;4945277;28;6967;-80
2022/07/17 08:36:50;;;;;;;;;;;;;;;30.38;26.65;101634.53;4943171;28;6963;-80
2022/07/17 08:39:16;;;;;;;;;;;;;;;30.68;26.84;101621.72;4909996;28;6847;-80
2022/07/17 08:41:42;;;;;;;;;;;;;;;30.86;25.94;101617.03;4948638;28;6994;-80
2022/07/17 08:44:08;;;;;;;;;;;;;;;31.09;26.31;101621.00;4918782;28;6772;-80
2022/07/17 08:46:39;;;;;;;;;;;;;;;31.56;25.75;101621.88;4918593;28;6993;-80
2022/07/17 08:49:07;;;;;;;;;;;;;;;32.04;25.59;101608.47;4928913;28;6784;-81
2022/07/17 08:51:34;;;;;;;;;;;;;;;32.55;24.75;101618.78;4908229;28;6982;-80
2022/07/17 08:54:00;;;;;;;;;;;;;;;32.97;24.59;101614.19;4954465;28;7963;-80
2022/07/17 08:56:27;;;;;;;;;;;;;;;33.20;23.73;101608.25;4929169;28;7238;-80
2022/07/17 08:58:55;;;;;;;;;;;;;;;33.42;23.58;101610.28;4944371;28;6788;-81
2022/07/17 09:01:22;;;;;;;;;;;;;;;33.63;23.09;101610.56;4928287;28;7148;-80
2022/07/17 09:04:05;;;;;;;;;;;;;;;33.95;22.59;101603.41;4939342;28;7296;-79
2022/07/17 09:06:32;;;;;;;;;;;;;;;34.29;22.99;101602.31;4943002;28;8475;-81
2022/07/17 09:09:11;;;;;;;;;;;;;;;34.71;22.73;101592.97;4942669;28;7272;-80
2022/07/17 09:11:51;;;;;;;;;;;;;;;35.22;22.62;101589.44;4929700;28;7175;-80
2022/07/17 09:14:20;;;;;;;;;;;;;;;35.64;22.04;101587.84;4932306;28;7190;-81
2022/07/17 09:16:54;;;;;;;;;;;;;;;36.08;21.45;101587.88;4937673;28;6798;-81
2022/07/17 09:19:35;;;;;;;;;;;;;;;36.55;21.11;101581.47;4954703;28;6991;-81
2022/07/17 09:22:22;;;;;;;;;;;;;;;36.83;20.64;101577.59;4941439;28;6808;-82
2022/07/17 09:24:49;;;;;;;;;;;;;;;36.82;20.08;101583.88;4934138;28;7055;-81
2022/07/17 09:27:28;;;;;;;;;;;;;;;36.80;20.69;101585.75;4931123;28;6999;-81
2022/07/17 09:30:03;;;;;;;;;;;;;;;37.00;21.18;101586.66;4935806;28;8189;-81
2022/07/17 09:32:35;;;;;;;;;;;;;;;37.41;20.10;101591.06;4935870;28;7012;-79
2022/07/17 09:35:03;;;;;;;;;;;;;;;37.73;19.76;101593.16;4910640;28;6990;-79
2022/07/17 09:37:31;;;;;;;;;;;;;;;37.99;19.71;101586.53;4929824;28;6982;-79
2022/07/17 09:39:58;;;;;;;;;;;;;;;38.33;19.68;101589.34;4933124;28;7076;-79
2022/07/17 09:42:32;;;;;;;;;;;;;;;38.71;19.47;101580.28;4914602;29;7207;-80
2022/07/17 09:45:09;;;;;;;;;;;;;;;39.07;19.13;101573.03;4909956;28;8790;-79
2022/07/17 09:47:38;;;;;;;;;;;;;;;39.40;18.97;101581.00;4908233;28;7281;-79
2022/07/17 09:50:08;;;;;;;;;;;;;;;39.70;18.55;101582.97;4942112;28;7200;-79
2022/07/17 09:52:39;;;;;;;;;;;;;;;39.84;17.92;101583.97;4934100;28;6859;-80
2022/07/17 09:55:06;;;;;;;;;;;;;;;39.59;17.09;101585.38;4959264;28;6807;-80
2022/07/17 09:57:34;;;;;;;;;;;;;;;39.26;17.00;101587.19;4938786;28;6912;-79
2022/07/17 10:00:06;;;;;;;;;;;;;;;39.00;17.34;101589.47;4928887;29;6986;-80
2022/07/17 10:02:33;;;;;;;;;;;;;;;38.85;17.74;101601.84;4937644;28;7012;-81
2022/07/17 10:05:00;;;;;;;;;;;;;;;38.80;18.14;101595.84;4928528;29;6856;-80
2022/07/17 10:07:26;;;;;;;;;;;;;;;38.87;17.78;101599.94;4927862;28;11025;-82
2022/07/17 10:09:52;;;;;;;;;;;;;;;38.98;17.73;101595.84;4956439;28;7278;-81
2022/07/17 10:12:19;;;;;;;;;;;;;;;39.14;17.37;101596.75;4924900;28;7236;-81
2022/07/17 10:14:49;;;;;;;;;;;;;;;39.25;17.26;101590.78;4931293;29;6991;-80
2022/07/17 10:17:23;;;;;;;;;;;;;;;39.10;16.92;101594.31;4956003;28;6804;-80
2022/07/17 10:19:57;;;;;;;;;;;;;;;38.87;17.23;101599.06;4931825;28;8105;-79
2022/07/17 10:22:24;;;;;;;;;;;;;;;38.76;17.47;101597.81;4950083;28;6989;-79
2022/07/17 10:24:54;;;;;;;;;;;;;;;38.73;17.89;101592.63;4930107;28;6982;-80
2022/07/17 10:27:28;;;;;;;;;;;;;;;38.79;17.63;101602.16;4963726;28;7170;-80
2022/07/17 10:30:10;;;;;;;;;;;;;;;38.88;17.84;101599.00;4961147;28;7203;-80
2022/07/17 10:32:37;;;;;;;;;;;;;;;38.92;16.96;101598.81;4938393;28;8172;-78
2022/07/17 10:35:07;;;;;;;;;;;;;;;38.75;17.25;101595.25;4912873;28;6909;-79
2022/07/17 10:37:40;;;;;;;;;;;;;;;38.80;17.71;101598.53;4917096;28;7083;-79
2022/07/17 10:40:14;;;;;;;;;;;;;;;38.79;17.10;101602.16;4925932;28;7280;-80
2022/07/17 10:42:59;;;;;;;;;;;;;;;38.38;16.81;101600.66;4929620;28;6816;-80
2022/07/17 10:45:37;;;;;;;;;;;;;;;37.82;17.06;101600.75;4955174;28;7051;-79
2022/07/17 10:48:19;;;;;;;;;;;;;;;37.28;17.18;101595.22;4928930;28;7267;-80
2022/07/17 10:50:54;;;;;;;;;;;;;;;36.89;17.61;101596.97;4930716;28;6944;-80
2022/07/17 10:53:25;;;;;;;;;;;;;;;36.57;18.07;101592.09;4943609;28;7194;-80
2022/07/17 10:55:56;;;;;;;;;;;;;;;36.30;18.22;101597.66;4958988;28;7007;-79
2022/07/17 10:58:26;;;;;;;;;;;;;;;36.22;17.73;101600.66;4931005;28;7037;-79
2022/07/17 11:01:19;;;;;;;;;;;;;;;36.29;17.66;101601.25;4926514;28;8463;-80
2022/07/17 11:03:49;;;;;;;;;;;;;;;36.67;17.73;101597.91;4963049;28;6994;-80
2022/07/17 11:06:37;;;;;;;;;;;;;;;37.24;17.89;101592.72;4945300;28;8083;-80
2022/07/17 11:09:12;;;;;;;;;;;;;;;37.84;18.03;101596.19;4929087;28;6961;-80
2022/07/17 11:11:43;;;;;;;;;;;;;;;38.29;17.23;101593.97;4956984;28;6821;-80
2022/07/17 11:14:13;;;;;;;;;;;;;;;38.47;16.51;101596.66;4944471;28;6804;-80
2022/07/17 11:16:51;;;;;;;;;;;;;;;38.73;16.73;101589.13;4925331;28;7195;-81
2022/07/17 11:19:38;;;;;;;;;;;;;;;39.19;16.68;101582.22;4935205;28;6951;-80
2022/07/17 11:22:07;;;;;;;;;;;;;;;39.60;16.26;101589.81;4930377;28;7508;-80
2022/07/17 11:24:41;;;;;;;;;;;;;;;39.70;15.86;101591.00;4929301;28;7390;-80
2022/07/17 11:27:10;;;;;;;;;;;;;;;39.58;15.69;101580.97;4939029;28;7034;-80
2022/07/17 11:29:38;;;;;;;;;;;;;;;39.54;16.17;101582.09;4939284;28;8579;-80
2022/07/17 11:32:04;;;;;;;;;;;;;;;39.70;16.23;101574.91;4932788;28;7290;-80
2022/07/17 11:34:30;;;;;;;;;;;;;;;39.93;16.00;101574.53;4939134;28;6979;-79
2022/07/17 11:37:06;;;;;;;;;;;;;;;39.94;15.44;101563.72;4942411;28;6945;-79
2022/07/17 11:39:42;;;;;;;;;;;;;;;39.86;15.58;101560.59;4954965;28;6997;-78
2022/07/17 11:42:11;;;;;;;;;;;;;;;39.87;15.71;101565.03;4956939;28;6808;-79
2022/07/17 11:44:38;;;;;;;;;;;;;;;39.75;15.52;101563.03;4932077;28;7009;-80
2022/07/17 11:47:04;;;;;;;;;;;;;;;39.43;15.71;101564.81;4928239;28;6975;-80
2022/07/17 11:49:34;;;;;;;;;;;;;;;39.03;15.28;101565.16;4926448;28;7250;-79
2022/07/17 11:52:19;;;;;;;;;;;;;;;38.59;15.67;101566.59;4941912;28;7278;-79
2022/07/17 11:54:54;;;;;;;;;;;;;;;38.24;16.22;101571.94;4954298;28;8927;-79
2022/07/17 11:57:22;;;;;;;;;;;;;;;38.01;16.30;101568.63;4910883;28;7009;-80
2022/07/17 11:59:51;;;;;;;;;;;;;;;37.93;15.93;101573.44;4947465;28;7023;-79
2022/07/17 12:02:22;;;;;;;;;;;;;;;37.88;15.87;101568.31;4932755;28;6824;-80
2022/07/17 12:04:56;;;;;;;;;;;;;;;38.01;15.91;101567.72;4944775;28;6983;-80
2022/07/17 12:07:39;;;;;;;;;;;;;;;38.27;16.75;101561.09;4932801;28;6949;-80
2022/07/17 12:10:22;;;;;;;;;;;;;;;38.65;16.64;101549.31;4929272;28;7295;-80
2022/07/17 12:13:05;;;;;;;;;;;;;;;39.02;15.89;101546.53;4926387;28;7111;-79
2022/07/17 12:15:50;;;;;;;;;;;;;;;39.28;15.69;101550.44;4952325;28;7109;-79
2022/07/17 12:18:29;;;;;;;;;;;;;;;39.20;15.38;101547.31;4944307;28;9845;-79
2022/07/17 12:20:59;;;;;;;;;;;;;;;39.05;15.79;101546.34;4936613;28;8520;-79
2022/07/17 12:23:33;;;;;;;;;;;;;;;39.01;15.55;101550.13;4926585;28;7565;-80
2022/07/17 12:26:11;;;;;;;;;;;;;;;39.03;15.90;101537.53;4923020;28;7019;-80
2022/07/17 12:28:38;;;;;;;;;;;;;;;39.23;15.41;101538.22;4947958;28;7632;-79
2022/07/17 12:31:06;;;;;;;;;;;;;;;39.28;15.38;101533.47;4920496;28;7477;-80
2022/07/17 12:33:32;;;;;;;;;;;;;;;39.23;14.95;101540.91;4947297;28;7905;-80
2022/07/17 12:35:58;;;;;;;;;;;;;;;39.10;14.92;101538.91;4937633;28;8085;-80
2022/07/17 12:38:24;;;;;;;;;;;;;;;39.10;15.08;101535.38;4925299;28;8393;-80
2022/07/17 12:40:49;;;;;;;;;;;;;;;39.23;15.07;101538.22;4933340;28;8496;-81
2022/07/17 12:43:15;;;;;;;;;;;;;;;39.21;14.78;101529.38;4922016;28;7367;-80
2022/07/17 12:45:41;;;;;;;;;;;;;;;39.21;15.10;101532.94;4922889;28;7545;-80
2022/07/17 12:48:06;;;;;;;;;;;;;;;39.24;15.08;101531.91;4910089;28;7551;-80
2022/07/17 12:50:32;;;;;;;;;;;;;;;39.28;15.29;101530.78;4947571;28;7446;-80